Time;durP1;ratioP1;P1;durP2;ratioP2;P2;SDS_P1;SDS_P2;PMS_P1;PMS_P2;Temp;Humidity;BMP_temperature;BMP_pressure;BME280_temperature;BME280_humidity;BME280_pressure;Samples;Min_cycle;Max_cycle;Signal;HPM_P1;HPM_P2
2024/02/04 00:00:43;;;;;;;2.30;2.20;;;11.00;99.90;;;;;;5106755;28;20186;-81
2024/02/04 00:03:09;;;;;;;2.10;2.00;;;11.10;99.90;;;;;;5107030;28;20215;-80
2024/02/04 00:05:35;;;;;;;0.30;0.20;;;11.00;99.90;;;;;;5108113;28;20330;-83
2024/02/04 00:08:02;;;;;;;0.40;0.40;;;11.00;99.90;;;;;;5108524;28;20192;-84
2024/02/04 00:10:28;;;;;;;0.30;0.20;;;11.00;99.90;;;;;;5107579;28;20381;-83
2024/02/04 00:12:54;;;;;;;0.30;0.20;;;11.00;99.90;;;;;;5108247;28;20684;-81
2024/02/04 00:15:20;;;;;;;0.30;0.20;;;11.00;99.90;;;;;;5106488;28;20289;-83
2024/02/04 00:17:45;;;;;;;0.30;0.20;;;11.00;99.90;;;;;;5107994;28;20500;-83
2024/02/04 00:20:11;;;;;;;0.30;0.20;;;11.00;99.90;;;;;;5107886;28;20206;-80
2024/02/04 00:22:37;;;;;;;0.30;0.20;;;11.00;99.90;;;;;;5106590;28;20589;-81
2024/02/04 00:25:04;;;;;;;0.30;0.20;;;11.00;99.90;;;;;;5106563;28;20180;-81
2024/02/04 00:27:31;;;;;;;0.30;0.20;;;10.90;99.90;;;;;;5106609;28;20175;-80
2024/02/04 00:29:58;;;;;;;0.30;0.20;;;10.90;99.90;;;;;;5107685;28;20172;-83
2024/02/04 00:32:25;;;;;;;0.30;0.20;;;10.90;99.90;;;;;;5106334;28;20511;-83
2024/02/04 00:34:51;;;;;;;0.32;0.25;;;10.90;99.90;;;;;;5107455;28;20471;-80
2024/02/04 00:37:17;;;;;;;0.30;0.20;;;10.90;99.90;;;;;;5106593;28;20183;-83
2024/02/04 00:39:42;;;;;;;0.30;0.20;;;10.90;99.90;;;;;;5108002;28;20183;-83
2024/02/04 00:42:08;;;;;;;0.30;0.20;;;10.80;99.90;;;;;;5105368;28;20264;-80
2024/02/04 00:44:34;;;;;;;0.30;0.20;;;10.80;99.90;;;;;;5106052;28;20223;-83
2024/02/04 00:47:00;;;;;;;0.30;0.20;;;10.80;99.90;;;;;;5107837;27;20181;-83
2024/02/04 00:49:28;;;;;;;0.30;0.20;;;10.80;99.90;;;;;;5107269;28;20661;-80
2024/02/04 00:51:54;;;;;;;0.88;0.88;;;10.80;99.90;;;;;;5105854;28;20603;-80
2024/02/04 00:54:20;;;;;;;9.10;8.60;;;10.80;99.90;;;;;;5106124;28;20288;-83
2024/02/04 00:56:46;;;;;;;0.30;0.20;;;10.80;99.90;;;;;;5106796;28;20172;-80
2024/02/04 00:59:12;;;;;;;0.30;0.30;;;10.70;99.90;;;;;;5105802;28;20277;-83
2024/02/04 01:01:38;;;;;;;0.30;0.20;;;10.70;99.90;;;;;;5105520;28;20271;-81
2024/02/04 01:04:04;;;;;;;0.30;0.20;;;10.70;99.90;;;;;;5107011;28;20526;-80
2024/02/04 01:06:30;;;;;;;0.30;0.20;;;10.70;99.90;;;;;;5105691;28;20912;-83
2024/02/04 01:08:59;;;;;;;0.30;0.20;;;10.70;99.90;;;;;;5105831;28;20569;-83
2024/02/04 01:11:25;;;;;;;0.30;0.20;;;10.70;99.90;;;;;;5106846;28;20235;-80
2024/02/04 01:13:50;;;;;;;0.40;0.30;;;10.70;99.90;;;;;;5107032;28;20195;-83
2024/02/04 01:16:16;;;;;;;0.30;0.30;;;10.70;99.90;;;;;;5105431;28;20813;-83
2024/02/04 01:18:42;;;;;;;0.30;0.20;;;10.70;99.90;;;;;;5105374;28;20831;-80
2024/02/04 01:21:08;;;;;;;0.30;0.20;;;10.70;99.90;;;;;;5106840;28;20203;-83
2024/02/04 01:23:34;;;;;;;0.30;0.22;;;10.70;99.90;;;;;;5106831;28;20669;-83
2024/02/04 01:26:00;;;;;;;0.30;0.20;;;10.70;99.90;;;;;;5105093;28;20190;-80
2024/02/04 01:28:25;;;;;;;0.30;0.20;;;10.60;99.90;;;;;;5107052;28;20199;-80
2024/02/04 01:30:51;;;;;;;0.30;0.20;;;10.60;99.90;;;;;;5106586;28;20179;-81
2024/02/04 01:33:17;;;;;;;0.37;0.37;;;10.60;99.90;;;;;;5105231;28;20199;-82
2024/02/04 01:35:43;;;;;;;0.30;0.20;;;10.60;99.90;;;;;;5105104;28;20171;-83
2024/02/04 01:38:08;;;;;;;0.30;0.20;;;10.60;99.90;;;;;;5106923;28;20192;-80
2024/02/04 01:40:34;;;;;;;0.40;0.30;;;10.60;99.90;;;;;;5104841;28;20172;-80
2024/02/04 01:42:59;;;;;;;0.30;0.20;;;10.60;99.90;;;;;;5104002;28;20586;-83
2024/02/04 01:45:25;;;;;;;0.30;0.20;;;10.60;99.90;;;;;;5105087;28;20187;-80
2024/02/04 01:47:52;;;;;;;0.30;0.20;;;10.60;99.90;;;;;;5105117;28;20207;-83
2024/02/04 01:50:18;;;;;;;0.30;0.20;;;10.60;99.90;;;;;;5104813;28;20701;-80
2024/02/04 01:52:44;;;;;;;0.30;0.20;;;10.60;99.90;;;;;;5106370;28;20227;-80
2024/02/04 01:55:11;;;;;;;0.30;0.20;;;10.70;99.90;;;;;;5106292;28;20179;-80
2024/02/04 01:57:37;;;;;;;0.30;0.20;;;10.60;99.90;;;;;;5105764;28;20282;-80
2024/02/04 02:00:08;;;;;;;0.30;0.20;;;10.60;99.90;;;;;;5104517;28;20721;-80
2024/02/04 02:02:38;;;;;;;0.30;0.20;;;10.60;99.90;;;;;;5105865;28;20667;-83
2024/02/04 02:05:05;;;;;;;0.30;0.20;;;10.60;99.90;;;;;;5104536;28;20226;-83
2024/02/04 02:07:30;;;;;;;0.30;0.20;;;10.60;99.90;;;;;;5106490;28;20290;-83
2024/02/04 02:09:56;;;;;;;0.30;0.20;;;10.60;99.90;;;;;;5105595;28;20317;-82
2024/02/04 02:12:51;;;;;;;0.30;0.20;;;10.60;99.90;;;;;;5104855;28;20697;-82
2024/02/04 02:15:30;;;;;;;0.30;0.20;;;10.60;99.90;;;;;;5104453;28;20699;-84
2024/02/04 02:18:35;;;;;;;0.30;0.20;;;10.50;99.90;;;;;;5104537;28;20290;-83
2024/02/04 02:21:18;;;;;;;0.30;0.20;;;10.50;99.90;;;;;;5103046;28;20644;-80
2024/02/04 02:24:08;;;;;;;0.30;0.20;;;10.50;99.90;;;;;;5104430;28;20281;-81
2024/02/04 02:26:38;;;;;;;0.40;0.40;;;10.40;99.90;;;;;;5104343;28;20187;-80
2024/02/04 02:29:04;;;;;;;0.30;0.20;;;10.40;99.90;;;;;;5104894;28;20553;-80
2024/02/04 02:31:30;;;;;;;0.30;0.20;;;10.40;99.90;;;;;;5104457;28;20265;-83
2024/02/04 02:33:56;;;;;;;0.30;0.20;;;10.40;99.90;;;;;;5104443;28;20278;-80
2024/02/04 02:36:23;;;;;;;0.30;0.20;;;10.40;99.90;;;;;;5105300;28;20168;-80
2024/02/04 02:39:27;;;;;;;0.30;0.20;;;10.40;99.90;;;;;;5104106;28;20430;-80
2024/02/04 02:41:57;;;;;;;0.30;0.20;;;10.40;99.90;;;;;;5062269;28;20181;-80
2024/02/04 02:44:26;;;;;;;0.30;0.20;;;10.40;99.90;;;;;;5093481;28;20299;-83
2024/02/04 02:46:54;;;;;;;0.82;0.80;;;10.40;99.90;;;;;;5104063;28;20172;-83
2024/02/04 02:49:20;;;;;;;0.30;0.20;;;10.30;99.90;;;;;;5104436;28;20204;-80
2024/02/04 02:51:45;;;;;;;0.30;0.20;;;10.30;99.90;;;;;;5105569;28;20253;-80
2024/02/04 02:54:11;;;;;;;0.30;0.20;;;10.30;99.90;;;;;;5104401;28;20242;-82
2024/02/04 02:56:37;;;;;;;0.30;0.20;;;10.30;99.90;;;;;;5103893;28;20168;-80
2024/02/04 02:59:03;;;;;;;0.30;0.20;;;10.30;99.90;;;;;;5105392;28;20199;-82
2024/02/04 03:01:30;;;;;;;0.30;0.20;;;10.30;99.90;;;;;;5103911;28;20180;-82
2024/02/04 03:03:56;;;;;;;0.30;0.20;;;10.30;99.90;;;;;;5105562;28;20837;-80
2024/02/04 03:06:22;;;;;;;0.30;0.20;;;10.30;99.90;;;;;;5104118;28;20171;-83
2024/02/04 03:08:47;;;;;;;3.73;3.50;;;10.40;99.90;;;;;;5105114;28;20539;-81
2024/02/04 03:11:13;;;;;;;0.30;0.20;;;10.40;99.90;;;;;;5105094;28;20455;-80
2024/02/04 03:13:39;;;;;;;0.30;0.20;;;10.40;99.90;;;;;;5106443;28;20248;-80
2024/02/04 03:16:11;;;;;;;0.30;0.20;;;10.40;99.90;;;;;;5107615;28;20207;-80
2024/02/04 03:18:39;;;;;;;0.30;0.22;;;10.40;99.90;;;;;;5107980;28;20426;-80
2024/02/04 03:21:11;;;;;;;7.70;7.38;;;10.40;99.90;;;;;;5108769;28;20798;-80
2024/02/04 03:23:36;;;;;;;0.30;0.20;;;10.40;99.90;;;;;;5107770;28;20208;-81
2024/02/04 03:26:02;;;;;;;0.40;0.37;;;10.40;99.90;;;;;;5107395;28;20187;-80
2024/02/04 03:28:28;;;;;;;0.30;0.20;;;10.40;99.90;;;;;;5107946;28;20203;-83
2024/02/04 03:30:54;;;;;;;0.30;0.20;;;10.40;99.90;;;;;;5107528;28;20180;-80
2024/02/04 03:33:19;;;;;;;0.30;0.20;;;10.40;99.90;;;;;;5109169;28;20463;-83
2024/02/04 03:35:45;;;;;;;0.30;0.20;;;10.40;99.90;;;;;;5108695;28;20355;-83
2024/02/04 03:38:11;;;;;;;0.30;0.20;;;10.40;99.90;;;;;;5108928;28;20203;-83
2024/02/04 03:40:36;;;;;;;0.30;0.30;;;10.40;99.90;;;;;;5108632;28;20578;-83
2024/02/04 03:43:02;;;;;;;0.60;0.60;;;10.40;99.90;;;;;;5108564;28;20243;-83
2024/02/04 03:45:28;;;;;;;0.93;0.87;;;10.40;99.90;;;;;;5107746;28;20195;-83
2024/02/04 03:47:54;;;;;;;0.30;0.20;;;10.40;99.90;;;;;;5107103;28;20303;-80
2024/02/04 03:50:19;;;;;;;0.30;0.20;;;10.40;99.90;;;;;;5107263;28;20396;-80
2024/02/04 03:52:45;;;;;;;1.57;1.47;;;10.50;99.90;;;;;;5107559;28;20249;-83
2024/02/04 03:55:11;;;;;;;0.30;0.20;;;10.50;99.90;;;;;;5108245;28;20330;-81
2024/02/04 03:57:37;;;;;;;0.30;0.20;;;10.50;99.90;;;;;;5108422;28;20196;-83
2024/02/04 04:00:03;;;;;;;0.30;0.30;;;10.60;99.90;;;;;;5106318;28;20210;-85
2024/02/04 04:02:28;;;;;;;0.30;0.20;;;10.60;99.90;;;;;;5107086;28;20427;-83
2024/02/04 04:04:54;;;;;;;0.30;0.20;;;10.60;99.90;;;;;;5106658;28;21006;-79
2024/02/04 04:07:19;;;;;;;0.30;0.30;;;10.70;99.90;;;;;;5108224;28;20378;-80
2024/02/04 04:09:45;;;;;;;0.30;0.20;;;10.70;99.90;;;;;;5106528;28;20334;-82
2024/02/04 04:12:11;;;;;;;0.30;0.30;;;10.80;99.90;;;;;;5107035;28;20423;-82
2024/02/04 04:14:37;;;;;;;0.30;0.20;;;10.80;99.90;;;;;;5108712;28;20192;-79
2024/02/04 04:17:02;;;;;;;0.30;0.20;;;10.80;99.90;;;;;;5106815;28;20179;-82
2024/02/04 04:19:28;;;;;;;0.30;0.30;;;10.80;99.90;;;;;;5106502;28;20435;-82
2024/02/04 04:21:54;;;;;;;0.30;0.20;;;10.80;99.90;;;;;;5107901;28;20543;-79
2024/02/04 04:24:22;;;;;;;0.30;0.20;;;10.90;99.90;;;;;;5106325;28;20259;-79
2024/02/04 04:26:47;;;;;;;0.30;0.20;;;10.90;99.90;;;;;;5107020;28;20426;-80
2024/02/04 04:29:13;;;;;;;0.30;0.20;;;10.90;99.90;;;;;;5107888;28;20192;-80
2024/02/04 04:31:39;;;;;;;0.30;0.20;;;10.90;99.90;;;;;;5106317;28;20239;-80
2024/02/04 04:34:05;;;;;;;0.30;0.20;;;10.90;99.90;;;;;;5106321;28;20203;-79
2024/02/04 04:36:31;;;;;;;0.30;0.20;;;10.90;99.90;;;;;;5107691;28;20172;-80
2024/02/04 04:38:56;;;;;;;0.30;0.20;;;10.90;99.90;;;;;;5106202;28;20633;-82
2024/02/04 04:41:22;;;;;;;0.30;0.20;;;10.90;99.90;;;;;;5107846;28;20220;-83
2024/02/04 04:43:48;;;;;;;0.30;0.20;;;10.90;99.90;;;;;;5106244;28;20711;-82
2024/02/04 04:46:13;;;;;;;0.30;0.30;;;10.80;99.90;;;;;;5104850;28;20272;-81
2024/02/04 04:48:39;;;;;;;0.30;0.20;;;10.90;99.90;;;;;;5107833;28;20231;-81
2024/02/04 04:51:08;;;;;;;0.30;0.20;;;10.90;99.90;;;;;;5105968;28;20183;-83
2024/02/04 04:53:33;;;;;;;0.30;0.20;;;10.90;99.90;;;;;;5106175;28;20199;-81
2024/02/04 04:55:59;;;;;;;0.30;0.20;;;10.90;99.90;;;;;;5106939;28;20588;-81
2024/02/04 04:58:25;;;;;;;0.30;0.20;;;10.90;99.90;;;;;;5107050;28;20199;-81
2024/02/04 05:00:51;;;;;;;1.50;1.03;;;10.90;99.90;;;;;;5105507;28;20172;-81
2024/02/04 05:03:16;;;;;;;0.30;0.20;;;10.90;99.90;;;;;;5107556;28;20588;-81
2024/02/04 05:05:42;;;;;;;0.30;0.20;;;10.90;99.90;;;;;;5105788;28;20234;-83
2024/02/04 05:08:08;;;;;;;0.30;0.20;;;10.90;99.90;;;;;;5107061;28;20208;-81
2024/02/04 05:10:34;;;;;;;0.30;0.20;;;11.00;99.90;;;;;;5105417;28;20310;-83
2024/02/04 05:12:59;;;;;;;0.30;0.20;;;11.00;99.90;;;;;;5107118;28;20206;-81
2024/02/04 05:15:25;;;;;;;0.30;0.20;;;11.00;99.90;;;;;;5107153;28;20200;-81
2024/02/04 05:17:50;;;;;;;5.10;2.50;;;11.00;99.90;;;;;;5105727;28;20199;-79
2024/02/04 05:20:16;;;;;;;0.30;0.20;;;11.00;99.90;;;;;;5105213;28;20225;-83
2024/02/04 05:22:42;;;;;;;0.30;0.20;;;11.00;99.90;;;;;;5105595;28;20203;-80
2024/02/04 05:25:09;;;;;;;0.30;0.30;;;11.00;99.90;;;;;;5105374;28;20310;-82
2024/02/04 05:27:36;;;;;;;0.57;0.55;;;11.00;99.90;;;;;;5105299;28;20172;-80
2024/02/04 05:30:02;;;;;;;0.30;0.20;;;11.10;99.90;;;;;;5105068;28;20187;-80
2024/02/04 05:32:28;;;;;;;1.50;1.50;;;11.10;99.90;;;;;;5106999;28;20175;-83
2024/02/04 05:34:53;;;;;;;0.30;0.20;;;11.10;99.90;;;;;;5105382;28;20183;-80
2024/02/04 05:37:19;;;;;;;0.30;0.20;;;11.10;99.90;;;;;;5104289;28;20197;-82
2024/02/04 05:39:45;;;;;;;0.30;0.20;;;11.10;99.90;;;;;;5105019;28;20563;-80
2024/02/04 05:42:10;;;;;;;0.30;0.20;;;11.10;99.90;;;;;;5106287;28;20164;-82
2024/02/04 05:44:36;;;;;;;0.30;0.20;;;11.10;99.90;;;;;;5106440;28;20251;-82
2024/02/04 05:47:02;;;;;;;0.30;0.20;;;11.10;99.90;;;;;;5105847;28;20206;-82
2024/02/04 05:49:28;;;;;;;0.30;0.30;;;11.10;99.90;;;;;;5105813;28;20187;-81
2024/02/04 05:51:53;;;;;;;0.30;0.20;;;11.10;99.90;;;;;;5105326;28;20716;-80
2024/02/04 05:54:20;;;;;;;0.30;0.20;;;11.10;99.90;;;;;;5106265;28;20428;-82
2024/02/04 05:56:45;;;;;;;0.30;0.20;;;11.10;99.90;;;;;;5106460;28;20639;-83
2024/02/04 05:59:11;;;;;;;0.30;0.30;;;11.10;99.90;;;;;;5105458;28;20222;-82
2024/02/04 06:01:37;;;;;;;0.30;0.20;;;11.10;99.90;;;;;;5105300;28;20172;-80
2024/02/04 06:04:03;;;;;;;0.30;0.20;;;11.10;99.90;;;;;;5103136;28;20676;-81
2024/02/04 06:06:29;;;;;;;0.30;0.20;;;11.10;99.90;;;;;;5104151;28;20217;-82
2024/02/04 06:08:55;;;;;;;0.30;0.20;;;11.10;99.90;;;;;;5104432;28;20203;-82
2024/02/04 06:11:20;;;;;;;0.30;0.20;;;11.10;99.90;;;;;;5104383;28;20728;-80
2024/02/04 06:13:46;;;;;;;0.30;0.20;;;11.10;99.90;;;;;;5104223;28;20190;-80
2024/02/04 06:16:12;;;;;;;0.30;0.20;;;11.00;99.90;;;;;;5104179;28;20176;-80
2024/02/04 06:18:38;;;;;;;0.30;0.20;;;10.90;99.90;;;;;;5104590;28;20275;-82
2024/02/04 06:21:07;;;;;;;0.30;0.20;;;10.90;99.90;;;;;;5102656;28;20180;-82
2024/02/04 06:23:33;;;;;;;0.30;0.20;;;10.90;99.90;;;;;;5104600;28;20214;-80
2024/02/04 06:26:00;;;;;;;0.30;0.20;;;10.80;99.90;;;;;;5102585;28;20179;-83
2024/02/04 06:28:26;;;;;;;0.30;0.20;;;10.80;99.90;;;;;;5102889;28;20455;-83
2024/02/04 06:30:52;;;;;;;0.30;0.20;;;10.80;99.90;;;;;;5102548;28;20176;-83
2024/02/04 06:33:17;;;;;;;0.30;0.20;;;10.80;99.90;;;;;;5103893;28;20195;-80
2024/02/04 06:35:43;;;;;;;4.00;0.77;;;10.80;99.90;;;;;;5102637;28;20258;-83
2024/02/04 06:38:09;;;;;;;0.30;0.30;;;10.80;99.90;;;;;;5105795;28;20188;-83
2024/02/04 06:40:34;;;;;;;0.30;0.30;;;10.80;99.90;;;;;;5105262;28;20180;-80
2024/02/04 06:43:00;;;;;;;0.30;0.20;;;10.80;99.90;;;;;;5105632;28;20455;-80
2024/02/04 06:45:25;;;;;;;0.30;0.20;;;10.80;99.90;;;;;;5105784;28;20172;-83
2024/02/04 06:47:51;;;;;;;0.30;0.20;;;10.80;99.90;;;;;;5103764;28;20195;-81
2024/02/04 06:50:17;;;;;;;0.30;0.20;;;10.80;99.90;;;;;;5106852;28;20211;-83
2024/02/04 06:52:43;;;;;;;0.30;0.20;;;10.80;99.90;;;;;;5107984;28;20203;-80
2024/02/04 06:55:10;;;;;;;0.30;0.20;;;10.80;99.90;;;;;;5106872;28;20420;-82
2024/02/04 06:57:35;;;;;;;0.30;0.20;;;10.80;99.90;;;;;;5108413;28;20176;-81
2024/02/04 07:00:05;;;;;;;0.30;0.20;;;10.80;99.90;;;;;;5108739;28;20540;-83
2024/02/04 07:02:31;;;;;;;0.30;0.20;;;10.80;99.90;;;;;;5107188;28;20431;-80
2024/02/04 07:04:56;;;;;;;0.30;0.20;;;10.90;99.90;;;;;;5107614;28;20451;-82
2024/02/04 07:07:22;;;;;;;0.30;0.20;;;10.90;99.90;;;;;;5110000;28;20419;-83
2024/02/04 07:09:48;;;;;;;0.30;0.20;;;11.00;99.90;;;;;;5106181;28;20235;-83
2024/02/04 07:12:14;;;;;;;0.30;0.20;;;11.00;99.90;;;;;;5106254;28;20192;-82
2024/02/04 07:14:39;;;;;;;0.30;0.20;;;11.00;99.90;;;;;;5107495;28;20467;-81
2024/02/04 07:17:05;;;;;;;0.40;0.40;;;11.10;99.90;;;;;;5107967;28;20542;-80
2024/02/04 07:19:31;;;;;;;2.50;2.40;;;11.10;99.90;;;;;;5106211;28;20195;-80
2024/02/04 07:21:56;;;;;;;0.30;0.20;;;11.20;99.90;;;;;;5108156;28;20533;-80
2024/02/04 07:24:22;;;;;;;0.30;0.20;;;11.20;99.90;;;;;;5108160;28;20540;-80
2024/02/04 07:26:48;;;;;;;0.30;0.30;;;11.40;99.90;;;;;;5107866;28;20182;-82
2024/02/04 07:29:14;;;;;;;4.77;4.53;;;11.60;99.90;;;;;;5108161;28;20639;-80
2024/02/04 07:31:40;;;;;;;1.07;1.07;;;11.80;99.90;;;;;;5107747;28;20176;-82
2024/02/04 07:34:06;;;;;;;0.30;0.20;;;12.00;99.90;;;;;;5107634;28;20619;-82
2024/02/04 07:36:32;;;;;;;0.30;0.20;;;12.10;99.90;;;;;;5107392;28;20168;-82
2024/02/04 07:38:58;;;;;;;0.30;0.20;;;12.20;99.90;;;;;;5109072;28;20499;-80
2024/02/04 07:41:23;;;;;;;0.30;0.20;;;12.30;99.90;;;;;;5107083;28;20269;-80
2024/02/04 07:43:49;;;;;;;0.30;0.20;;;12.50;99.90;;;;;;5107586;28;20483;-83
2024/02/04 07:46:15;;;;;;;0.30;0.20;;;12.60;99.90;;;;;;5108447;28;20543;-81
2024/02/04 07:48:41;;;;;;;0.30;0.27;;;12.80;99.90;;;;;;5107739;28;20436;-83
2024/02/04 07:51:08;;;;;;;1.90;1.80;;;13.10;99.90;;;;;;5107121;28;20180;-81
2024/02/04 07:53:34;;;;;;;0.30;0.20;;;13.40;99.90;;;;;;5107077;28;20267;-81
2024/02/04 07:56:00;;;;;;;1.17;1.17;;;13.80;99.90;;;;;;5108624;28;20408;-83
2024/02/04 07:58:27;;;;;;;0.30;0.20;;;14.30;99.90;;;;;;5107169;28;20994;-83
2024/02/04 08:00:53;;;;;;;1.47;0.87;;;14.80;99.90;;;;;;5106009;28;20187;-83
2024/02/04 08:03:18;;;;;;;0.40;0.30;;;15.40;99.90;;;;;;5105731;28;20706;-81
2024/02/04 08:05:44;;;;;;;0.40;0.30;;;16.00;99.90;;;;;;5106307;28;20431;-80
2024/02/04 08:08:10;;;;;;;0.40;0.30;;;16.70;99.90;;;;;;5106754;28;20203;-81
2024/02/04 08:10:35;;;;;;;0.40;0.30;;;17.40;99.90;;;;;;5106085;28;20254;-83
2024/02/04 08:13:01;;;;;;;0.40;0.20;;;18.00;99.90;;;;;;5105443;28;20223;-81
2024/02/04 08:15:27;;;;;;;0.40;0.30;;;18.80;99.90;;;;;;5104924;28;20356;-83
2024/02/04 08:17:52;;;;;;;0.40;0.30;;;19.50;99.90;;;;;;5105312;28;20196;-81
2024/02/04 08:20:18;;;;;;;0.40;0.20;;;20.00;99.90;;;;;;5107180;28;20424;-83
2024/02/04 08:22:44;;;;;;;0.40;0.20;;;20.30;99.90;;;;;;5107118;28;20238;-84
2024/02/04 08:25:11;;;;;;;0.40;0.23;;;20.60;99.90;;;;;;5105658;28;20975;-83
2024/02/04 08:27:38;;;;;;;0.40;0.20;;;20.80;99.90;;;;;;5104719;28;20456;-83
2024/02/04 08:30:04;;;;;;;0.40;0.20;;;21.20;99.90;;;;;;5106078;27;20920;-83
2024/02/04 08:32:30;;;;;;;0.40;0.30;;;21.30;99.30;;;;;;5104496;28;20432;-81
2024/02/04 08:34:56;;;;;;;0.47;0.47;;;21.10;99.10;;;;;;5104464;28;20426;-82
2024/02/04 08:37:22;;;;;;;0.40;0.30;;;21.10;98.90;;;;;;5106390;28;20697;-81
2024/02/04 08:39:47;;;;;;;0.30;0.20;;;21.40;98.30;;;;;;5106076;28;20164;-83
2024/02/04 08:42:13;;;;;;;0.30;0.20;;;21.60;97.50;;;;;;5106177;28;20719;-81
2024/02/04 08:44:39;;;;;;;0.30;0.20;;;21.60;96.90;;;;;;5105363;28;20273;-83
2024/02/04 08:47:05;;;;;;;1.03;1.03;;;21.10;96.90;;;;;;5104514;28;20440;-81
2024/02/04 08:49:31;;;;;;;0.30;0.20;;;20.50;97.20;;;;;;5104972;28;20207;-81
2024/02/04 08:51:56;;;;;;;0.40;0.20;;;19.70;97.80;;;;;;5105901;28;20430;-81
2024/02/04 08:54:22;;;;;;;0.30;0.20;;;19.00;98.40;;;;;;5105719;28;20913;-83
2024/02/04 08:56:48;;;;;;;0.30;0.20;;;18.30;99.50;;;;;;5105755;28;20195;-83
2024/02/04 08:59:13;;;;;;;0.40;0.20;;;17.90;99.90;;;;;;5104617;28;20194;-84
2024/02/04 09:01:39;;;;;;;0.30;0.20;;;17.50;99.90;;;;;;5106202;28;20177;-82
2024/02/04 09:04:05;;;;;;;1.07;0.97;;;17.30;99.90;;;;;;5105774;28;20212;-82
2024/02/04 09:06:30;;;;;;;0.40;0.20;;;17.10;99.90;;;;;;5105545;28;20185;-82
2024/02/04 09:08:56;;;;;;;0.40;0.30;;;17.00;99.90;;;;;;5105892;28;20676;-84
2024/02/04 09:11:24;;;;;;;0.40;0.30;;;16.90;99.90;;;;;;5105728;28;20240;-82
2024/02/04 09:13:49;;;;;;;0.40;0.30;;;17.30;99.90;;;;;;5105879;28;21026;-82
2024/02/04 09:16:16;;;;;;;0.40;0.20;;;18.00;99.90;;;;;;5106554;28;20458;-82
2024/02/04 09:18:42;;;;;;;0.40;0.30;;;18.90;99.90;;;;;;5105515;28;20531;-82
2024/02/04 09:21:07;;;;;;;0.40;0.30;;;19.60;99.80;;;;;;5105434;28;20211;-82
2024/02/04 09:23:33;;;;;;;0.40;0.30;;;20.20;99.30;;;;;;5106742;28;20505;-84
2024/02/04 09:25:59;;;;;;;0.40;0.30;;;20.80;98.20;;;;;;5105415;28;20194;-83
2024/02/04 09:28:25;;;;;;;0.37;0.20;;;21.30;97.70;;;;;;5106935;28;20792;-81
2024/02/04 09:30:51;;;;;;;0.40;0.30;;;21.60;96.80;;;;;;5105005;28;20184;-82
2024/02/04 09:33:16;;;;;;;0.40;0.20;;;21.90;96.50;;;;;;5105190;28;20270;-82
2024/02/04 09:35:42;;;;;;;0.30;0.20;;;22.20;95.40;;;;;;5104620;28;20239;-82
2024/02/04 09:38:08;;;;;;;0.40;0.20;;;22.60;95.30;;;;;;5105135;28;20189;-82
2024/02/04 09:40:34;;;;;;;0.40;0.20;;;23.10;94.00;;;;;;5104787;28;20193;-81
2024/02/04 09:43:01;;;;;;;0.30;0.20;;;23.40;93.20;;;;;;5103488;28;20669;-81
2024/02/04 09:45:26;;;;;;;0.40;0.20;;;23.50;92.60;;;;;;5103149;28;21067;-81
2024/02/04 09:47:54;;;;;;;0.40;0.40;;;23.50;92.80;;;;;;5103732;28;20442;-82
2024/02/04 09:50:21;;;;;;;0.67;0.57;;;23.50;92.40;;;;;;5103277;28;20174;-83
2024/02/04 09:52:53;;;;;;;0.40;0.20;;;23.40;91.80;;;;;;5105083;28;20484;-81
2024/02/04 09:55:21;;;;;;;0.30;0.20;;;23.30;91.90;;;;;;5103926;28;20418;-81
2024/02/04 09:57:47;;;;;;;0.30;0.20;;;23.10;91.50;;;;;;5105213;28;20439;-81
2024/02/04 10:00:13;;;;;;;0.30;0.20;;;22.80;91.80;;;;;;5104924;28;20487;-82
2024/02/04 10:02:40;;;;;;;0.30;0.20;;;22.40;91.40;;;;;;5105599;28;20596;-81
2024/02/04 10:05:08;;;;;;;0.40;0.20;;;21.80;91.60;;;;;;5104831;28;20464;-81
2024/02/04 10:07:34;;;;;;;0.80;0.80;;;21.20;92.30;;;;;;5104868;28;20412;-82
2024/02/04 10:10:00;;;;;;;0.30;0.20;;;20.70;92.70;;;;;;5105934;28;20455;-81
2024/02/04 10:12:26;;;;;;;0.37;0.20;;;20.20;93.10;;;;;;5105920;28;20916;-83
2024/02/04 10:14:52;;;;;;;0.30;0.20;;;19.90;93.50;;;;;;5104488;28;20408;-81
2024/02/04 10:17:20;;;;;;;0.30;0.20;;;19.70;94.00;;;;;;5106483;28;20176;-83
2024/02/04 10:19:48;;;;;;;0.40;0.20;;;19.60;93.90;;;;;;5104224;28;20221;-81
2024/02/04 10:22:14;;;;;;;0.40;0.20;;;19.30;94.30;;;;;;5105665;28;20602;-81
2024/02/04 10:24:39;;;;;;;0.40;0.20;;;19.20;94.70;;;;;;5104360;28;20475;-82
2024/02/04 10:27:05;;;;;;;0.30;0.20;;;19.10;94.50;;;;;;5106294;28;20184;-82
2024/02/04 10:29:31;;;;;;;0.30;0.20;;;19.00;94.80;;;;;;5105811;28;20199;-83
2024/02/04 10:31:57;;;;;;;0.40;0.20;;;18.90;94.70;;;;;;5104478;28;20210;-82
2024/02/04 10:34:25;;;;;;;0.30;0.20;;;18.80;94.60;;;;;;5104621;28;20675;-80
2024/02/04 10:36:51;;;;;;;0.30;0.20;;;18.60;94.60;;;;;;5104276;28;21055;-82
2024/02/04 10:39:17;;;;;;;0.30;0.20;;;18.40;94.30;;;;;;5104701;28;20488;-82
2024/02/04 10:41:51;;;;;;;0.30;0.20;;;18.20;94.70;;;;;;5104047;28;21053;-81
2024/02/04 10:44:21;;;;;;;0.60;0.60;;;18.10;94.70;;;;;;5104339;28;20467;-82
2024/02/04 10:46:48;;;;;;;0.40;0.20;;;18.00;94.80;;;;;;5104233;28;20467;-80
2024/02/04 10:49:15;;;;;;;0.40;0.20;;;18.00;94.90;;;;;;5104824;28;20483;-82
2024/02/04 10:51:41;;;;;;;0.30;0.20;;;17.80;94.90;;;;;;5104144;28;20974;-81
2024/02/04 10:54:08;;;;;;;0.30;0.20;;;17.70;95.20;;;;;;5105538;28;20778;-81
2024/02/04 10:56:42;;;;;;;0.30;0.20;;;17.70;95.20;;;;;;5103716;28;20443;-82
2024/02/04 10:59:11;;;;;;;0.40;0.20;;;17.60;95.30;;;;;;5105862;28;20425;-82
2024/02/04 11:01:38;;;;;;;0.30;0.20;;;17.60;95.20;;;;;;5104489;28;20938;-81
2024/02/04 11:04:05;;;;;;;0.40;0.20;;;17.60;95.00;;;;;;5104412;28;21034;-83
2024/02/04 11:06:31;;;;;;;0.40;0.20;;;17.50;94.60;;;;;;5105682;28;20445;-82
2024/02/04 11:08:58;;;;;;;0.40;0.20;;;17.40;94.80;;;;;;5104376;28;20433;-83
2024/02/04 11:11:26;;;;;;;0.30;0.20;;;17.40;94.30;;;;;;5104193;28;20890;-82
2024/02/04 11:13:57;;;;;;;0.30;0.20;;;17.30;94.40;;;;;;5105618;28;20855;-83
2024/02/04 11:16:40;;;;;;;0.30;0.20;;;17.30;94.60;;;;;;5105584;28;20419;-80
2024/02/04 11:19:34;;;;;;;0.30;0.20;;;17.30;94.90;;;;;;5104528;28;20442;-81
2024/02/04 11:22:41;;;;;;;0.30;0.20;;;17.30;95.00;;;;;;5103934;28;20439;-83
2024/02/04 11:25:45;;;;;;;0.30;0.20;;;17.40;94.80;;;;;;5103805;28;20607;-81
2024/02/04 11:28:12;;;;;;;0.40;0.20;;;17.40;94.90;;;;;;5082174;28;20449;-81
2024/02/04 11:30:38;;;;;;;0.30;0.20;;;17.40;95.20;;;;;;5100507;28;20781;-83
2024/02/04 11:33:04;;;;;;;0.30;0.20;;;17.50;95.30;;;;;;5104021;28;20961;-83
2024/02/04 11:35:32;;;;;;;0.30;0.20;;;17.60;95.20;;;;;;5108734;28;20654;-81
2024/02/04 11:37:58;;;;;;;0.30;0.20;;;17.60;95.00;;;;;;5107547;28;20498;-83
2024/02/04 11:40:29;;;;;;;0.40;0.20;;;17.60;95.00;;;;;;5108827;28;20671;-81
2024/02/04 11:43:04;;;;;;;0.30;0.20;;;17.60;94.90;;;;;;5108896;27;20442;-83
2024/02/04 11:45:30;;;;;;;0.30;0.20;;;17.60;95.10;;;;;;5108742;27;20890;-82
2024/02/04 11:48:01;;;;;;;0.30;0.20;;;17.60;94.80;;;;;;5108882;28;20434;-81
2024/02/04 11:50:31;;;;;;;0.30;0.20;;;17.60;94.90;;;;;;5107261;28;20176;-82
2024/02/04 11:53:11;;;;;;;0.30;0.20;;;17.60;95.00;;;;;;5107101;28;20575;-81
2024/02/04 11:55:41;;;;;;;0.30;0.20;;;17.60;95.00;;;;;;5106119;28;20494;-82
2024/02/04 11:58:09;;;;;;;0.30;0.20;;;17.60;94.70;;;;;;5107256;28;20588;-83
2024/02/04 12:00:35;;;;;;;0.30;0.20;;;17.60;94.90;;;;;;5106754;28;20522;-82
2024/02/04 12:03:08;;;;;;;0.30;0.20;;;17.60;94.60;;;;;;5107721;28;21011;-83
2024/02/04 12:05:38;;;;;;;0.30;0.20;;;17.60;94.70;;;;;;5107138;28;20447;-81
2024/02/04 12:08:06;;;;;;;0.30;0.20;;;17.60;94.50;;;;;;5107213;28;20987;-81
2024/02/04 12:10:36;;;;;;;0.30;0.30;;;17.60;94.70;;;;;;5106769;28;20831;-81
2024/02/04 12:13:09;;;;;;;0.30;0.20;;;17.60;94.60;;;;;;5107143;28;20803;-81
2024/02/04 12:15:35;;;;;;;0.30;0.20;;;17.70;94.50;;;;;;5106754;28;20939;-82
2024/02/04 12:18:11;;;;;;;0.30;0.20;;;17.60;94.70;;;;;;5108252;28;20934;-81
2024/02/04 12:20:38;;;;;;;0.30;0.20;;;17.60;94.70;;;;;;5106700;28;20455;-81
2024/02/04 12:23:04;;;;;;;0.30;0.20;;;17.60;94.80;;;;;;5106796;28;20573;-83
2024/02/04 12:25:31;;;;;;;0.30;0.20;;;17.60;94.70;;;;;;5106513;28;20419;-82
2024/02/04 12:28:02;;;;;;;0.30;0.20;;;17.70;94.50;;;;;;5106507;28;20443;-82
2024/02/04 12:30:29;;;;;;;0.30;0.20;;;17.80;94.40;;;;;;5106164;28;20484;-81
2024/02/04 12:32:58;;;;;;;0.30;0.20;;;17.80;94.30;;;;;;5107960;28;20995;-83
2024/02/04 12:35:25;;;;;;;0.30;0.20;;;17.80;94.60;;;;;;5106359;28;20461;-81
2024/02/04 12:37:55;;;;;;;0.30;0.20;;;17.90;94.50;;;;;;5107684;28;20950;-81
2024/02/04 12:40:29;;;;;;;0.30;0.20;;;18.00;94.40;;;;;;5106455;28;20458;-83
2024/02/04 12:42:55;;;;;;;0.30;0.20;;;17.90;94.20;;;;;;5106370;28;20434;-83
2024/02/04 12:45:26;;;;;;;0.40;0.20;;;17.90;93.90;;;;;;5105729;28;20471;-81
2024/02/04 12:47:52;;;;;;;0.30;0.20;;;17.80;93.50;;;;;;5107817;28;20475;-81